65NC weather

Scenic Overlook B & B Heliport
Pilot Mountain, North Carolina, United States

Public forecast

Using degrees Fahrenheit for public forecast. Weather courtesy of forecast.io.

METAR (pilot weather report)

Closest report is Mount Airy Surry County Airport, 8.2 nm (15.2 km) NW. Retrieved 2019/07/21 08:40 UTC (0 seconds ago):

KMWK 210840Z AUTO 00000KT 7SM CLR 23/21 A3004 RMK AO2 T02300213

TAF (pilot weather forecast)

Closest forecast is Smith Reynolds Airport, 17.1 nm (31.7 km) SE. Retrieved 2019/07/21 06:22 UTC (2 hours ago):

TAF KINT 210520Z 2106/2206 24008KT P6SM BKN250 FM211500 24012G18KT P6SM SCT050 FM220000 22009KT P6SM FEW250